createdAt,value
2017-11-09T00:06:19.466Z,0
2017-11-09T00:16:19.300Z,0
2017-11-09T00:26:19.255Z,0
2017-11-09T00:36:19.207Z,0
2017-11-09T00:46:19.197Z,0
2017-11-09T00:56:19.232Z,0
2017-11-09T01:06:19.542Z,0
2017-11-09T01:16:19.293Z,0
2017-11-09T01:26:19.194Z,0
2017-11-09T01:36:20.509Z,0
2017-11-09T01:46:19.258Z,0
2017-11-09T01:56:19.316Z,0
2017-11-09T02:06:19.271Z,0
2017-11-09T02:16:19.360Z,0
2017-11-09T02:26:20.338Z,0
2017-11-09T02:36:19.732Z,0
2017-11-09T02:46:19.325Z,0
2017-11-09T02:56:19.299Z,0
2017-11-09T03:06:20.686Z,0
2017-11-09T03:16:19.303Z,0
2017-11-09T03:26:19.369Z,0
2017-11-09T03:36:19.619Z,0
2017-11-09T03:46:19.402Z,0
2017-11-09T03:56:19.343Z,0
2017-11-09T04:06:20.348Z,0
2017-11-09T04:16:20.396Z,0
2017-11-09T04:26:19.447Z,0
2017-11-09T04:36:19.757Z,0
2017-11-09T04:46:21.386Z,0
2017-11-09T04:56:19.457Z,0
2017-11-09T05:06:19.461Z,0
2017-11-09T05:16:19.440Z,0
2017-11-09T05:26:19.465Z,0
2017-11-09T05:36:19.464Z,0
2017-11-09T05:46:20.473Z,0
2017-11-09T05:56:19.516Z,0
2017-11-09T06:06:20.508Z,0
2017-11-09T06:16:19.550Z,0
2017-11-09T06:26:19.493Z,8
2017-11-09T06:36:19.517Z,28
2017-11-09T06:46:20.571Z,72
2017-11-09T06:56:19.607Z,120
2017-11-09T07:06:19.794Z,260
2017-11-09T07:16:19.500Z,428
2017-11-09T07:26:19.492Z,584
2017-11-09T07:36:19.510Z,884
2017-11-09T07:46:19.560Z,1248
2017-11-09T07:56:19.530Z,1604
2017-11-09T08:06:19.950Z,2020
2017-11-09T08:16:19.596Z,1692
2017-11-09T08:26:19.553Z,1580
2017-11-09T08:36:19.647Z,1824
2017-11-09T08:46:19.582Z,2548
2017-11-09T08:56:19.617Z,5372
2017-11-09T09:06:19.967Z,6596
2017-11-09T09:16:19.614Z,7388
2017-11-09T09:26:19.598Z,6544
2017-11-09T09:36:20.056Z,7564
2017-11-09T09:46:19.637Z,7776
2017-11-09T09:56:19.616Z,7444
2017-11-09T10:06:19.616Z,2756
2017-11-09T10:16:19.675Z,2876
2017-11-09T10:26:19.669Z,4940
2017-11-09T10:36:19.646Z,7744
2017-11-09T10:46:20.303Z,6484
2017-11-09T10:56:19.740Z,5476
2017-11-09T11:06:19.659Z,5908
2017-11-09T11:16:19.748Z,5720
2017-11-09T11:26:20.353Z,5140
2017-11-09T11:36:19.723Z,4564
2017-11-09T11:46:19.729Z,4836
2017-11-09T11:56:19.877Z,3448
2017-11-09T12:06:19.741Z,4384
2017-11-09T12:16:19.737Z,3620
2017-11-09T12:26:19.788Z,4360
2017-11-09T12:36:19.742Z,4508
2017-11-09T12:46:19.822Z,3772
2017-11-09T12:56:19.785Z,3620
2017-11-09T13:06:19.786Z,5092
2017-11-09T13:16:19.817Z,4596
2017-11-09T13:26:19.830Z,4616
2017-11-09T13:36:19.842Z,3368
2017-11-09T13:46:19.830Z,3600
2017-11-09T13:56:19.908Z,3368
2017-11-09T14:06:19.896Z,3560
2017-11-09T14:16:19.842Z,2648
2017-11-09T14:26:19.861Z,2484
2017-11-09T14:36:19.924Z,2288
2017-11-09T14:46:19.862Z,2100
2017-11-09T14:56:19.919Z,1456
2017-11-09T15:06:19.984Z,1140
2017-11-09T15:16:19.983Z,704
2017-11-09T15:26:20.020Z,340
2017-11-09T15:36:20.024Z,148
2017-11-09T15:46:20.102Z,116
2017-11-09T15:56:20.044Z,60
2017-11-09T16:06:20.086Z,20
2017-11-09T16:16:20.015Z,8
2017-11-09T16:26:20.018Z,4
2017-11-09T16:36:20.405Z,4
2017-11-09T16:46:20.034Z,4
2017-11-09T16:56:19.987Z,0
2017-11-09T17:06:20.032Z,4
2017-11-09T17:16:20.131Z,4
2017-11-09T17:26:20.011Z,0
2017-11-09T17:36:20.036Z,0
2017-11-09T17:46:20.057Z,0
2017-11-09T17:56:20.061Z,0
2017-11-09T18:06:20.440Z,4
2017-11-09T18:16:20.054Z,4
2017-11-09T18:26:20.127Z,0
2017-11-09T18:36:20.468Z,4
2017-11-09T18:46:21.089Z,4
2017-11-09T18:56:20.830Z,4
2017-11-09T19:06:21.281Z,4
2017-11-09T19:16:23.976Z,4
2017-11-09T19:26:25.100Z,4
2017-11-09T19:36:32.926Z,4
2017-11-09T19:46:40.556Z,4
2017-11-09T19:56:28.143Z,4
2017-11-09T20:06:29.682Z,4
2017-11-09T20:16:30.651Z,4
2017-11-09T20:26:29.474Z,4
2017-11-09T20:36:36.852Z,4
2017-11-09T20:46:29.990Z,4
2017-11-09T20:56:26.203Z,4
2017-11-09T21:06:28.857Z,4
2017-11-09T21:16:23.306Z,4
2017-11-09T21:26:21.617Z,4
2017-11-09T21:36:21.643Z,4
2017-11-09T21:46:21.349Z,4
2017-11-09T21:56:31.336Z,4
2017-11-09T22:06:24.028Z,4
2017-11-09T22:16:22.216Z,4
2017-11-09T22:26:20.522Z,4
2017-11-09T22:36:20.411Z,4
2017-11-09T22:46:20.420Z,0
2017-11-09T22:56:20.405Z,0
2017-11-09T23:06:21.105Z,0
2017-11-09T23:16:20.565Z,0
2017-11-09T23:26:20.494Z,4
2017-11-09T23:36:20.530Z,0
2017-11-09T23:46:20.389Z,0
2017-11-09T23:56:20.679Z,0
